Time;durP1;ratioP1;P1;durP2;ratioP2;P2;SDS_P1;SDS_P2;PMS_P1;PMS_P2;Temp;Humidity;BMP_temperature;BMP_pressure;BME280_temperature;BME280_humidity;BME280_pressure;Samples;Min_cycle;Max_cycle;Signal;HPM_P1;HPM_P2
2021/01/16 00:01:03;;;;;;;16.23;7.33;;;;;;;;;;5111952;28;20197;-76
2021/01/16 00:04:10;;;;;;;16.13;6.27;;;;;;;;;;5101370;28;20582;-75
2021/01/16 00:07:14;;;;;;;14.93;6.77;;;;;;;;;;5113808;28;20274;-76
2021/01/16 00:10:19;;;;;;;15.53;6.50;;;;;;;;;;5100865;28;20243;-76
2021/01/16 00:13:25;;;;;;;16.17;7.20;;;;;;;;;;5094295;28;20232;-76
2021/01/16 00:16:30;;;;;;;18.10;7.83;;;;;;;;;;5096458;28;20243;-75
2021/01/16 00:19:35;;;;;;;15.40;7.50;;;;;;;;;;5100497;28;20688;-76
2021/01/16 00:22:49;;;;;;;19.07;7.97;;;;;;;;;;5088509;28;20224;-76
2021/01/16 00:25:55;;;;;;;14.40;7.50;;;;;;;;;;5112971;27;20245;-75
2021/01/16 00:28:59;;;;;;;16.60;6.73;;;;;;;;;;5080761;28;20193;-75
2021/01/16 00:32:05;;;;;;;13.70;6.40;;;;;;;;;;5096259;28;20236;-76
2021/01/16 00:35:12;;;;;;;14.83;7.10;;;;;;;;;;5090970;28;20212;-75
2021/01/16 00:38:17;;;;;;;16.03;7.77;;;;;;;;;;5096711;28;20570;-74
2021/01/16 00:41:23;;;;;;;20.43;8.27;;;;;;;;;;5106676;28;20252;-76
2021/01/16 00:44:28;;;;;;;17.73;7.20;;;;;;;;;;5111203;28;20262;-75
2021/01/16 00:47:35;;;;;;;18.93;8.77;;;;;;;;;;5100539;28;20662;-76
2021/01/16 00:50:40;;;;;;;20.47;8.23;;;;;;;;;;5101795;28;20228;-75
2021/01/16 00:53:45;;;;;;;16.77;7.63;;;;;;;;;;5100472;28;20224;-76
2021/01/16 00:56:52;;;;;;;17.87;8.00;;;;;;;;;;5100010;28;20208;-76
2021/01/16 00:59:59;;;;;;;19.97;8.90;;;;;;;;;;5100498;28;20204;-76
2021/01/16 01:03:08;;;;;;;20.17;8.37;;;;;;;;;;5084377;28;20216;-75
2021/01/16 01:06:12;;;;;;;18.50;8.20;;;;;;;;;;5105675;28;20231;-75
2021/01/16 01:09:17;;;;;;;19.87;8.20;;;;;;;;;;5098292;28;20197;-75
2021/01/16 01:12:22;;;;;;;19.23;8.73;;;;;;;;;;5083141;28;20244;-74
2021/01/16 01:15:27;;;;;;;19.00;7.83;;;;;;;;;;5112876;28;20340;-74
2021/01/16 01:18:33;;;;;;;20.50;8.23;;;;;;;;;;5098273;28;20205;-76
2021/01/16 01:21:37;;;;;;;21.03;8.60;;;;;;;;;;5097197;28;20275;-74
2021/01/16 01:24:42;;;;;;;19.77;8.53;;;;;;;;;;5101906;28;20231;-76
2021/01/16 01:27:49;;;;;;;20.77;8.83;;;;;;;;;;5111813;28;20208;-75
2021/01/16 01:30:54;;;;;;;18.10;8.37;;;;;;;;;;5100210;28;20212;-75
2021/01/16 01:33:59;;;;;;;18.40;9.10;;;;;;;;;;5079523;28;20243;-76
2021/01/16 01:37:04;;;;;;;21.00;8.00;;;;;;;;;;5079688;28;20201;-76
2021/01/16 01:40:10;;;;;;;20.33;8.07;;;;;;;;;;5083937;28;20576;-76
2021/01/16 01:43:14;;;;;;;21.10;8.50;;;;;;;;;;5104174;28;20228;-75
2021/01/16 01:46:19;;;;;;;22.27;8.23;;;;;;;;;;5099081;28;20244;-76
2021/01/16 01:49:26;;;;;;;17.07;7.90;;;;;;;;;;5100107;28;20238;-76
2021/01/16 01:52:31;;;;;;;19.50;8.47;;;;;;;;;;5083159;28;20253;-76
2021/01/16 01:55:36;;;;;;;19.00;7.93;;;;;;;;;;5091852;28;20259;-76
2021/01/16 01:58:42;;;;;;;17.00;7.50;;;;;;;;;;5081597;28;20255;-75
2021/01/16 02:01:50;;;;;;;21.60;9.00;;;;;;;;;;5089756;28;20233;-75
2021/01/16 02:04:59;;;;;;;17.47;8.30;;;;;;;;;;5098160;28;20719;-75
2021/01/16 02:08:04;;;;;;;21.63;8.63;;;;;;;;;;5083669;28;20648;-76
2021/01/16 02:11:09;;;;;;;18.17;8.20;;;;;;;;;;5104860;28;20206;-76
2021/01/16 02:14:14;;;;;;;17.67;8.27;;;;;;;;;;5093316;28;20229;-76
2021/01/16 02:17:19;;;;;;;20.60;8.53;;;;;;;;;;5083099;28;20332;-76
2021/01/16 02:20:27;;;;;;;18.53;8.00;;;;;;;;;;5084053;28;20209;-75
2021/01/16 02:23:33;;;;;;;24.07;8.63;;;;;;;;;;5095007;28;20252;-75
2021/01/16 02:26:49;;;;;;;18.40;7.23;;;;;;;;;;5094996;28;20206;-75
2021/01/16 02:29:56;;;;;;;18.93;8.10;;;;;;;;;;5082727;28;20194;-76
2021/01/16 02:33:02;;;;;;;16.87;7.47;;;;;;;;;;5085235;28;20237;-75
2021/01/16 02:36:12;;;;;;;20.70;7.77;;;;;;;;;;5103461;28;20652;-76
2021/01/16 02:39:20;;;;;;;18.87;7.90;;;;;;;;;;5103208;28;20250;-76
2021/01/16 02:42:29;;;;;;;18.27;7.80;;;;;;;;;;5117648;28;20302;-76
2021/01/16 02:45:36;;;;;;;19.20;7.97;;;;;;;;;;5107448;28;20224;-75
2021/01/16 02:48:48;;;;;;;19.10;7.77;;;;;;;;;;5110657;28;20320;-75
2021/01/16 02:51:59;;;;;;;17.60;7.53;;;;;;;;;;5091225;28;20228;-76
2021/01/16 02:55:05;;;;;;;18.57;8.20;;;;;;;;;;5102397;28;20220;-75
2021/01/16 02:58:09;;;;;;;17.33;7.63;;;;;;;;;;5101263;28;20208;-74
2021/01/16 03:01:15;;;;;;;19.27;8.20;;;;;;;;;;5101221;28;20623;-74
2021/01/16 03:04:19;;;;;;;17.57;7.20;;;;;;;;;;5100852;28;20209;-74
2021/01/16 03:07:26;;;;;;;16.83;7.77;;;;;;;;;;5088651;28;20700;-75
2021/01/16 03:10:31;;;;;;;17.60;7.03;;;;;;;;;;5094716;28;20205;-74
2021/01/16 03:13:36;;;;;;;20.00;7.83;;;;;;;;;;5096356;28;20263;-74
2021/01/16 03:16:58;;;;;;;18.70;7.50;;;;;;;;;;5114994;28;20208;-75
2021/01/16 03:20:03;;;;;;;16.53;7.37;;;;;;;;;;5091089;28;20477;-75
2021/01/16 03:23:08;;;;;;;21.27;8.20;;;;;;;;;;5085774;28;20751;-74
2021/01/16 03:26:13;;;;;;;17.33;7.87;;;;;;;;;;5098338;28;20275;-74
2021/01/16 03:29:18;;;;;;;18.87;7.80;;;;;;;;;;5093118;28;20287;-76
2021/01/16 03:32:23;;;;;;;19.30;8.13;;;;;;;;;;5081591;28;20229;-76
2021/01/16 03:35:28;;;;;;;17.73;7.47;;;;;;;;;;5091004;28;20225;-76
2021/01/16 03:38:32;;;;;;;15.43;7.20;;;;;;;;;;5099149;28;20212;-76
2021/01/16 03:41:37;;;;;;;16.37;7.17;;;;;;;;;;5089344;28;20228;-76
2021/01/16 03:44:42;;;;;;;18.13;7.60;;;;;;;;;;5089805;28;20255;-76
2021/01/16 03:47:48;;;;;;;18.93;7.80;;;;;;;;;;5080791;28;20689;-76
2021/01/16 03:50:52;;;;;;;15.00;7.10;;;;;;;;;;5082600;28;20294;-76
2021/01/16 03:53:57;;;;;;;18.80;7.57;;;;;;;;;;5100649;28;20221;-76
2021/01/16 03:57:02;;;;;;;17.00;7.50;;;;;;;;;;5101305;28;20213;-76
2021/01/16 04:00:07;;;;;;;17.33;7.73;;;;;;;;;;5095494;28;20257;-76
2021/01/16 04:03:14;;;;;;;16.53;7.37;;;;;;;;;;5101214;28;20323;-76
2021/01/16 04:06:19;;;;;;;15.80;6.57;;;;;;;;;;5100320;28;20706;-76
2021/01/16 04:09:23;;;;;;;17.17;8.13;;;;;;;;;;5092658;28;20247;-75
2021/01/16 04:12:28;;;;;;;13.67;6.70;;;;;;;;;;5081245;28;20220;-76
2021/01/16 04:15:33;;;;;;;15.83;6.90;;;;;;;;;;5082012;28;20244;-75
2021/01/16 04:18:38;;;;;;;17.33;7.73;;;;;;;;;;5080916;28;20310;-75
2021/01/16 04:21:43;;;;;;;13.70;6.40;;;;;;;;;;5089159;28;20262;-75
2021/01/16 04:24:48;;;;;;;15.00;6.97;;;;;;;;;;5090414;28;20202;-75
2021/01/16 04:27:53;;;;;;;15.50;6.10;;;;;;;;;;5082657;28;20255;-75
2021/01/16 04:30:57;;;;;;;13.47;6.47;;;;;;;;;;5093982;28;20240;-75
2021/01/16 04:34:02;;;;;;;15.60;6.63;;;;;;;;;;5097091;28;20248;-74
2021/01/16 04:37:07;;;;;;;14.50;6.07;;;;;;;;;;5088644;28;20283;-75
2021/01/16 04:40:12;;;;;;;13.50;6.27;;;;;;;;;;5098328;28;20296;-74
2021/01/16 04:43:17;;;;;;;14.53;6.27;;;;;;;;;;5104867;28;20578;-75
2021/01/16 04:46:23;;;;;;;13.77;6.13;;;;;;;;;;5099653;28;20216;-75
2021/01/16 04:49:29;;;;;;;11.60;5.90;;;;;;;;;;5106384;28;20560;-75
2021/01/16 04:52:33;;;;;;;14.20;5.93;;;;;;;;;;5101739;28;20605;-75
2021/01/16 04:55:39;;;;;;;12.83;5.90;;;;;;;;;;5082593;28;20244;-75
2021/01/16 04:58:44;;;;;;;12.17;5.60;;;;;;;;;;5096924;28;20215;-75
2021/01/16 05:01:49;;;;;;;13.57;5.57;;;;;;;;;;5111486;28;20282;-75
2021/01/16 05:05:00;;;;;;;12.93;5.47;;;;;;;;;;5099987;28;20242;-75
2021/01/16 05:08:05;;;;;;;12.70;5.70;;;;;;;;;;5099464;28;20213;-75
2021/01/16 05:11:16;;;;;;;11.97;5.20;;;;;;;;;;5079657;28;20596;-74
2021/01/16 05:14:20;;;;;;;12.23;5.50;;;;;;;;;;5080174;28;20480;-75
2021/01/16 05:17:26;;;;;;;12.43;5.40;;;;;;;;;;5082361;28;20209;-75
2021/01/16 05:20:32;;;;;;;14.03;5.77;;;;;;;;;;5095565;28;20213;-75
2021/01/16 05:23:43;;;;;;;14.63;5.93;;;;;;;;;;5112147;28;20205;-74
2021/01/16 05:27:01;;;;;;;14.57;5.67;;;;;;;;;;5096351;28;20205;-75
2021/01/16 05:30:07;;;;;;;14.80;5.83;;;;;;;;;;5091318;28;20213;-75
2021/01/16 05:33:12;;;;;;;12.50;5.73;;;;;;;;;;5083914;28;20228;-75
2021/01/16 05:36:18;;;;;;;12.53;5.97;;;;;;;;;;5079524;28;20217;-75
2021/01/16 05:39:24;;;;;;;14.93;6.03;;;;;;;;;;5079084;28;20206;-75
2021/01/16 05:42:29;;;;;;;13.87;6.30;;;;;;;;;;5098069;28;20793;-75
2021/01/16 05:45:34;;;;;;;14.53;5.87;;;;;;;;;;5085940;28;20252;-75
2021/01/16 05:48:39;;;;;;;15.40;6.27;;;;;;;;;;5079255;28;20197;-75
2021/01/16 05:51:45;;;;;;;16.73;6.93;;;;;;;;;;5099220;28;20781;-75
2021/01/16 05:54:52;;;;;;;14.90;6.50;;;;;;;;;;5089954;28;20229;-75
2021/01/16 05:58:04;;;;;;;15.47;5.97;;;;;;;;;;5096215;28;20288;-75
2021/01/16 06:01:09;;;;;;;13.13;5.70;;;;;;;;;;5079948;28;20248;-75
2021/01/16 06:04:16;;;;;;;13.43;5.60;;;;;;;;;;5079716;28;20243;-75
2021/01/16 06:07:22;;;;;;;14.20;6.00;;;;;;;;;;5093033;28;20208;-76
2021/01/16 06:10:27;;;;;;;15.23;6.10;;;;;;;;;;5080522;28;20220;-75
2021/01/16 06:13:32;;;;;;;14.27;6.30;;;;;;;;;;5092773;28;20262;-75
2021/01/16 06:16:47;;;;;;;16.63;6.47;;;;;;;;;;5099494;28;20263;-75
2021/01/16 06:19:51;;;;;;;14.47;6.10;;;;;;;;;;5086561;28;20228;-74
2021/01/16 06:23:00;;;;;;;17.67;6.87;;;;;;;;;;5079524;28;20237;-75
2021/01/16 06:26:07;;;;;;;15.57;6.40;;;;;;;;;;5078648;28;20293;-75
2021/01/16 06:29:24;;;;;;;14.97;6.50;;;;;;;;;;5097813;28;20282;-74
2021/01/16 06:32:30;;;;;;;17.67;6.97;;;;;;;;;;5098513;28;21457;-74
2021/01/16 06:35:35;;;;;;;15.37;6.73;;;;;;;;;;5098752;28;20251;-74
2021/01/16 06:38:40;;;;;;;16.47;6.60;;;;;;;;;;5087023;28;20209;-74
2021/01/16 06:41:46;;;;;;;17.93;7.03;;;;;;;;;;5101692;28;20318;-75
2021/01/16 06:45:02;;;;;;;19.27;7.70;;;;;;;;;;5081331;28;20438;-74
2021/01/16 06:48:07;;;;;;;16.23;7.17;;;;;;;;;;5082925;28;20213;-74
2021/01/16 06:51:12;;;;;;;17.17;7.23;;;;;;;;;;5082970;28;20263;-75
2021/01/16 06:54:22;;;;;;;16.47;6.67;;;;;;;;;;5082528;28;20334;-74
2021/01/16 06:57:27;;;;;;;17.33;6.90;;;;;;;;;;5081926;28;20324;-74
2021/01/16 07:00:32;;;;;;;14.63;6.37;;;;;;;;;;5090706;28;20223;-74
2021/01/16 07:03:40;;;;;;;18.07;7.53;;;;;;;;;;5089085;28;20241;-74
2021/01/16 07:06:47;;;;;;;18.80;7.10;;;;;;;;;;5081983;28;20239;-75
2021/01/16 07:09:54;;;;;;;18.43;7.83;;;;;;;;;;5106053;28;20574;-75
2021/01/16 07:13:00;;;;;;;17.20;7.33;;;;;;;;;;5108835;28;20325;-74
2021/01/16 07:16:05;;;;;;;15.33;6.60;;;;;;;;;;5081915;28;20261;-74
2021/01/16 07:19:10;;;;;;;16.53;7.20;;;;;;;;;;5098451;28;20249;-74
2021/01/16 07:22:14;;;;;;;18.87;8.03;;;;;;;;;;5100522;28;20286;-74
2021/01/16 07:25:21;;;;;;;20.73;8.13;;;;;;;;;;5081735;28;20194;-74
2021/01/16 07:28:25;;;;;;;18.33;7.90;;;;;;;;;;5101096;28;20263;-73
2021/01/16 07:31:35;;;;;;;21.10;8.27;;;;;;;;;;5114031;28;20245;-74
2021/01/16 07:34:41;;;;;;;19.90;8.43;;;;;;;;;;5102012;28;20712;-74
2021/01/16 07:37:46;;;;;;;22.57;8.87;;;;;;;;;;5113503;28;20224;-74
2021/01/16 07:40:57;;;;;;;24.50;10.00;;;;;;;;;;5118231;28;20231;-75
2021/01/16 07:44:06;;;;;;;22.07;9.37;;;;;;;;;;5103278;28;20250;-74
2021/01/16 07:47:19;;;;;;;22.97;9.50;;;;;;;;;;5100522;28;20640;-75
2021/01/16 07:50:25;;;;;;;28.97;10.40;;;;;;;;;;5101099;28;21749;-75
2021/01/16 07:53:30;;;;;;;23.77;10.03;;;;;;;;;;5105600;28;20217;-74
2021/01/16 07:56:37;;;;;;;24.50;9.70;;;;;;;;;;5091451;28;20652;-74
2021/01/16 07:59:46;;;;;;;23.23;9.93;;;;;;;;;;5082575;28;20223;-75
2021/01/16 08:03:05;;;;;;;27.57;10.67;;;;;;;;;;5080519;28;20221;-75
2021/01/16 08:06:16;;;;;;;27.43;10.97;;;;;;;;;;5095960;28;20287;-75
2021/01/16 08:09:23;;;;;;;25.73;10.60;;;;;;;;;;5080537;28;20688;-75
2021/01/16 08:12:28;;;;;;;25.53;10.67;;;;;;;;;;5090446;28;20225;-75
2021/01/16 08:15:33;;;;;;;23.80;9.97;;;;;;;;;;5080289;28;20301;-75
2021/01/16 08:18:38;;;;;;;26.37;10.73;;;;;;;;;;5079972;28;20280;-75
2021/01/16 08:21:53;;;;;;;24.07;10.30;;;;;;;;;;5084184;28;20309;-75
2021/01/16 08:25:02;;;;;;;28.77;10.90;;;;;;;;;;5094096;28;20255;-75
2021/01/16 08:28:09;;;;;;;29.57;11.27;;;;;;;;;;5080758;28;20197;-75
2021/01/16 08:31:24;;;;;;;28.87;12.13;;;;;;;;;;5095900;28;20270;-75
2021/01/16 08:34:48;;;;;;;35.03;12.07;;;;;;;;;;5080198;28;20244;-75
2021/01/16 08:37:53;;;;;;;37.00;12.27;;;;;;;;;;5080235;28;20262;-75
2021/01/16 08:41:04;;;;;;;37.50;13.53;;;;;;;;;;5094682;28;20225;-75
2021/01/16 08:44:10;;;;;;;28.50;12.63;;;;;;;;;;5101025;28;20224;-75
2021/01/16 08:47:16;;;;;;;31.03;12.03;;;;;;;;;;5081822;28;20217;-75
2021/01/16 08:50:21;;;;;;;26.73;11.17;;;;;;;;;;5098591;28;20209;-74
2021/01/16 08:53:26;;;;;;;32.83;11.57;;;;;;;;;;5114868;28;20212;-75
2021/01/16 08:56:30;;;;;;;31.30;12.20;;;;;;;;;;5081443;28;20355;-75
2021/01/16 08:59:36;;;;;;;30.27;12.20;;;;;;;;;;5092685;28;20236;-75
2021/01/16 09:02:40;;;;;;;29.60;11.57;;;;;;;;;;5087706;28;20630;-75
2021/01/16 09:05:46;;;;;;;35.83;11.87;;;;;;;;;;5079604;28;20634;-75
2021/01/16 09:08:51;;;;;;;31.50;12.40;;;;;;;;;;5098561;28;20236;-75
2021/01/16 09:12:10;;;;;;;25.07;10.70;;;;;;;;;;5091864;28;20839;-73
2021/01/16 09:15:20;;;;;;;37.10;12.73;;;;;;;;;;5085301;28;20221;-75
2021/01/16 09:18:25;;;;;;;31.13;12.27;;;;;;;;;;5106235;28;20301;-75
2021/01/16 09:21:29;;;;;;;28.17;10.87;;;;;;;;;;5098648;28;20682;-75
2021/01/16 09:24:34;;;;;;;32.20;12.87;;;;;;;;;;5100451;28;20242;-75
2021/01/16 09:27:46;;;;;;;31.90;11.57;;;;;;;;;;5105961;28;20290;-74
2021/01/16 09:30:52;;;;;;;33.88;14.32;;;;;;;;;;5093462;28;20539;-75
2021/01/16 09:33:57;;;;;;;31.67;12.20;;;;;;;;;;5098838;28;20300;-75
2021/01/16 09:37:02;;;;;;;42.53;15.60;;;;;;;;;;5091652;28;20247;-75
2021/01/16 09:40:09;;;;;;;41.80;15.10;;;;;;;;;;5089054;28;20216;-74
2021/01/16 09:43:14;;;;;;;51.30;16.43;;;;;;;;;;5089338;28;20323;-75
2021/01/16 09:46:33;;;;;;;40.77;15.03;;;;;;;;;;5090691;28;20236;-75
2021/01/16 09:49:44;;;;;;;36.17;14.53;;;;;;;;;;5086427;28;20252;-75
2021/01/16 09:52:50;;;;;;;31.00;12.67;;;;;;;;;;5095359;28;20347;-75
2021/01/16 09:55:55;;;;;;;33.83;14.37;;;;;;;;;;5091529;28;20266;-74
2021/01/16 09:59:02;;;;;;;40.43;17.30;;;;;;;;;;5096438;28;20711;-74
2021/01/16 10:02:11;;;;;;;30.47;12.07;;;;;;;;;;5096648;28;20298;-74
2021/01/16 10:05:16;;;;;;;30.97;13.13;;;;;;;;;;5081587;28;20206;-75
2021/01/16 10:08:28;;;;;;;43.83;13.63;;;;;;;;;;5088291;28;20201;-74
2021/01/16 10:11:43;;;;;;;31.00;12.13;;;;;;;;;;5079065;28;20665;-74
2021/01/16 10:14:48;;;;;;;24.00;10.87;;;;;;;;;;5079836;28;20305;-73
2021/01/16 10:17:55;;;;;;;25.33;10.80;;;;;;;;;;5093673;28;20197;-77
2021/01/16 10:21:01;;;;;;;29.70;11.67;;;;;;;;;;5089596;28;20738;-76
2021/01/16 10:24:16;;;;;;;25.00;10.93;;;;;;;;;;5103322;28;20689;-76
2021/01/16 10:27:35;;;;;;;25.97;10.33;;;;;;;;;;5094325;28;20672;-75
2021/01/16 10:30:52;;;;;;;27.77;11.63;;;;;;;;;;5098416;28;20755;-74
2021/01/16 10:34:05;;;;;;;24.60;10.20;;;;;;;;;;5083206;28;20244;-73
2021/01/16 10:37:11;;;;;;;26.03;9.97;;;;;;;;;;5092493;28;20675;-75
2021/01/16 10:40:17;;;;;;;25.13;10.53;;;;;;;;;;5083642;28;20598;-75
2021/01/16 10:43:22;;;;;;;23.27;10.50;;;;;;;;;;5093914;28;20236;-75
2021/01/16 10:46:33;;;;;;;25.37;11.63;;;;;;;;;;5092296;28;20224;-75
2021/01/16 10:49:49;;;;;;;22.27;9.93;;;;;;;;;;5083342;28;20209;-74
2021/01/16 10:53:02;;;;;;;22.47;10.00;;;;;;;;;;5096358;28;20740;-75
2021/01/16 10:56:13;;;;;;;23.37;9.73;;;;;;;;;;5085030;28;20217;-76
2021/01/16 10:59:18;;;;;;;27.00;10.10;;;;;;;;;;5082024;28;20248;-76
2021/01/16 11:02:35;;;;;;;26.63;10.47;;;;;;;;;;5095081;28;20274;-75
2021/01/16 11:05:42;;;;;;;29.50;10.90;;;;;;;;;;5089036;28;20337;-74
2021/01/16 11:08:54;;;;;;;26.67;11.17;;;;;;;;;;5083057;28;20688;-74
2021/01/16 11:12:00;;;;;;;28.43;11.23;;;;;;;;;;5082684;28;20463;-75
2021/01/16 11:15:22;;;;;;;20.97;9.10;;;;;;;;;;5091749;28;20225;-74
2021/01/16 11:18:28;;;;;;;26.70;10.27;;;;;;;;;;5089963;28;20298;-74
2021/01/16 11:21:51;;;;;;;23.60;10.03;;;;;;;;;;5090350;28;20216;-73
2021/01/16 11:25:11;;;;;;;23.17;8.60;;;;;;;;;;5097034;28;20202;-74
2021/01/16 11:28:20;;;;;;;22.30;9.10;;;;;;;;;;5102631;28;20250;-74
2021/01/16 11:31:27;;;;;;;25.27;9.33;;;;;;;;;;5089902;28;20271;-74
2021/01/16 11:34:35;;;;;;;23.97;10.20;;;;;;;;;;5098161;28;20293;-74
2021/01/16 11:37:47;;;;;;;21.97;9.00;;;;;;;;;;5101820;28;20201;-75
2021/01/16 11:40:53;;;;;;;23.07;10.10;;;;;;;;;;5082339;28;20232;-75
2021/01/16 11:43:58;;;;;;;26.17;10.13;;;;;;;;;;5081440;28;20297;-75
2021/01/16 11:47:03;;;;;;;20.13;9.20;;;;;;;;;;5081161;28;20229;-74
2021/01/16 11:50:09;;;;;;;27.50;9.50;;;;;;;;;;5095761;28;20208;-74
2021/01/16 11:53:13;;;;;;;26.23;9.73;;;;;;;;;;5095245;28;20217;-74
2021/01/16 11:56:21;;;;;;;28.10;10.73;;;;;;;;;;5082906;28;20283;-74
2021/01/16 11:59:27;;;;;;;24.57;9.70;;;;;;;;;;5114016;28;20235;-75
2021/01/16 12:02:33;;;;;;;22.67;9.57;;;;;;;;;;5081187;28;20229;-75
2021/01/16 12:05:40;;;;;;;19.43;9.10;;;;;;;;;;5101813;28;20282;-75
2021/01/16 12:08:45;;;;;;;26.60;10.57;;;;;;;;;;5080684;28;20293;-74
2021/01/16 12:11:54;;;;;;;28.17;10.13;;;;;;;;;;5080950;28;20311;-75
2021/01/16 12:15:00;;;;;;;24.00;9.60;;;;;;;;;;5087530;28;20241;-75
2021/01/16 12:18:04;;;;;;;23.10;9.27;;;;;;;;;;5081465;28;20205;-75
2021/01/16 12:21:10;;;;;;;24.07;9.63;;;;;;;;;;5085366;28;20544;-73
2021/01/16 12:24:15;;;;;;;21.33;8.33;;;;;;;;;;5093372;28;20223;-74
2021/01/16 12:27:22;;;;;;;25.37;10.10;;;;;;;;;;5109005;28;20201;-73
2021/01/16 12:30:34;;;;;;;21.77;9.57;;;;;;;;;;5102573;28;20229;-73
2021/01/16 12:33:39;;;;;;;24.47;9.63;;;;;;;;;;5101296;28;20253;-73
2021/01/16 12:36:46;;;;;;;24.20;9.60;;;;;;;;;;5097283;28;20221;-73
2021/01/16 12:39:50;;;;;;;23.50;8.93;;;;;;;;;;5081074;28;20209;-74
2021/01/16 12:42:55;;;;;;;24.60;10.57;;;;;;;;;;5097824;28;20294;-75
2021/01/16 12:46:06;;;;;;;25.07;9.80;;;;;;;;;;5088496;28;20329;-74
2021/01/16 12:49:12;;;;;;;21.50;9.57;;;;;;;;;;5110489;28;20205;-74
2021/01/16 12:52:24;;;;;;;26.57;9.70;;;;;;;;;;5107125;28;20224;-75
2021/01/16 12:55:29;;;;;;;26.87;9.40;;;;;;;;;;5104452;28;20216;-73
2021/01/16 12:58:38;;;;;;;26.87;10.93;;;;;;;;;;5100521;28;20755;-73
2021/01/16 13:01:46;;;;;;;26.93;11.07;;;;;;;;;;5099539;28;20235;-74
2021/01/16 13:04:53;;;;;;;30.60;12.67;;;;;;;;;;5099560;28;20707;-73
2021/01/16 13:07:58;;;;;;;30.20;12.03;;;;;;;;;;5100563;28;20674;-74
2021/01/16 13:11:05;;;;;;;22.27;9.67;;;;;;;;;;5099364;28;20204;-74
2021/01/16 13:14:10;;;;;;;27.50;11.27;;;;;;;;;;5112674;28;20709;-74
2021/01/16 13:17:17;;;;;;;27.63;9.87;;;;;;;;;;5099857;28;20197;-73
2021/01/16 13:20:22;;;;;;;26.80;10.27;;;;;;;;;;5099422;28;20306;-73
2021/01/16 13:23:35;;;;;;;30.57;10.83;;;;;;;;;;5099417;28;20338;-74
2021/01/16 13:26:40;;;;;;;22.10;9.63;;;;;;;;;;5099631;28;20251;-73
2021/01/16 13:29:45;;;;;;;23.97;9.80;;;;;;;;;;5099532;28;20209;-74
2021/01/16 13:32:50;;;;;;;30.50;11.00;;;;;;;;;;5111827;28;20231;-73
2021/01/16 13:35:55;;;;;;;28.53;12.30;;;;;;;;;;5099215;28;20271;-74
2021/01/16 13:38:59;;;;;;;29.73;11.33;;;;;;;;;;5099536;28;20201;-74
2021/01/16 13:42:04;;;;;;;30.37;11.73;;;;;;;;;;5099330;28;20286;-74
2021/01/16 13:45:10;;;;;;;30.10;11.77;;;;;;;;;;5099051;28;20220;-75
2021/01/16 13:48:15;;;;;;;35.73;13.40;;;;;;;;;;5087754;28;20240;-74
2021/01/16 13:51:20;;;;;;;30.27;12.70;;;;;;;;;;5099465;28;20228;-75
2021/01/16 13:54:31;;;;;;;26.20;11.40;;;;;;;;;;5101466;28;20223;-74
2021/01/16 13:57:36;;;;;;;32.13;12.37;;;;;;;;;;5084141;28;20205;-74
2021/01/16 14:00:45;;;;;;;29.47;11.17;;;;;;;;;;5097260;28;20240;-74
2021/01/16 14:03:50;;;;;;;36.57;13.40;;;;;;;;;;5100022;28;20208;-73
2021/01/16 14:06:58;;;;;;;33.00;11.83;;;;;;;;;;5093122;28;20204;-75
2021/01/16 14:10:03;;;;;;;27.80;11.03;;;;;;;;;;5094519;28;20346;-75
2021/01/16 14:13:10;;;;;;;29.70;12.27;;;;;;;;;;5094576;28;20262;-75
2021/01/16 14:16:14;;;;;;;28.57;11.63;;;;;;;;;;5090321;28;20352;-75
2021/01/16 14:19:20;;;;;;;31.17;11.73;;;;;;;;;;5114558;28;20289;-75
2021/01/16 14:22:36;;;;;;;28.20;11.10;;;;;;;;;;5088634;28;20251;-74
2021/01/16 14:25:41;;;;;;;28.90;11.17;;;;;;;;;;5109726;28;20197;-73
2021/01/16 14:28:46;;;;;;;31.60;12.80;;;;;;;;;;5084021;28;20693;-73
2021/01/16 14:31:51;;;;;;;29.67;12.20;;;;;;;;;;5085231;28;20233;-74
2021/01/16 14:34:56;;;;;;;32.43;12.63;;;;;;;;;;5092260;28;20582;-75
2021/01/16 14:38:01;;;;;;;31.77;11.90;;;;;;;;;;5082938;28;20252;-74
2021/01/16 14:41:06;;;;;;;31.83;11.90;;;;;;;;;;5112518;28;20197;-75
2021/01/16 14:44:12;;;;;;;30.27;12.13;;;;;;;;;;5091359;28;20229;-74
2021/01/16 14:47:25;;;;;;;27.90;10.57;;;;;;;;;;5104778;27;20714;-74
2021/01/16 14:50:30;;;;;;;30.43;11.87;;;;;;;;;;5090379;28;20277;-74
2021/01/16 14:53:37;;;;;;;29.40;11.47;;;;;;;;;;5092932;28;20285;-75
2021/01/16 14:56:48;;;;;;;29.63;12.17;;;;;;;;;;5095468;28;20634;-75
2021/01/16 14:59:53;;;;;;;32.50;11.17;;;;;;;;;;5100578;28;20718;-74
2021/01/16 15:02:59;;;;;;;25.30;10.20;;;;;;;;;;5096576;28;20240;-75
2021/01/16 15:06:05;;;;;;;27.27;11.30;;;;;;;;;;5095793;28;20254;-79
2021/01/16 15:09:10;;;;;;;29.40;11.07;;;;;;;;;;5097214;28;20224;-78
2021/01/16 15:12:15;;;;;;;29.10;11.20;;;;;;;;;;5100587;28;20283;-78
2021/01/16 15:15:41;;;;;;;29.77;11.93;;;;;;;;;;5105491;28;20212;-76
2021/01/16 15:18:46;;;;;;;30.67;11.83;;;;;;;;;;5103612;28;20284;-77
2021/01/16 15:21:51;;;;;;;31.03;11.97;;;;;;;;;;5103015;28;20764;-76
2021/01/16 15:24:56;;;;;;;29.67;11.50;;;;;;;;;;5101972;28;20190;-76
2021/01/16 15:28:01;;;;;;;29.40;11.07;;;;;;;;;;5101684;28;20274;-77
2021/01/16 15:31:06;;;;;;;23.53;9.27;;;;;;;;;;5115492;28;20282;-76
2021/01/16 15:34:12;;;;;;;29.10;10.83;;;;;;;;;;5087572;28;20258;-77
2021/01/16 15:37:18;;;;;;;26.43;10.90;;;;;;;;;;5097858;28;20193;-77
2021/01/16 15:40:23;;;;;;;29.40;11.20;;;;;;;;;;5095001;28;20193;-76
2021/01/16 15:43:34;;;;;;;30.57;11.83;;;;;;;;;;5095374;28;20225;-77
2021/01/16 15:46:39;;;;;;;27.90;11.20;;;;;;;;;;5098133;28;20254;-77
2021/01/16 15:49:43;;;;;;;33.10;12.10;;;;;;;;;;5101532;28;20185;-76
2021/01/16 15:52:50;;;;;;;31.03;11.50;;;;;;;;;;5101584;28;20256;-77
2021/01/16 15:55:55;;;;;;;29.13;11.43;;;;;;;;;;5104693;28;20224;-77
2021/01/16 15:59:01;;;;;;;31.30;11.43;;;;;;;;;;5101803;28;20220;-78
2021/01/16 16:02:14;;;;;;;29.07;11.93;;;;;;;;;;5102787;28;20285;-78
2021/01/16 16:05:18;;;;;;;28.13;9.83;;;;;;;;;;5103009;28;20189;-78
2021/01/16 16:08:26;;;;;;;29.13;11.27;;;;;;;;;;5094629;28;20236;-79
2021/01/16 16:11:32;;;;;;;28.10;12.03;;;;;;;;;;5098696;28;20282;-77
2021/01/16 16:14:36;;;;;;;30.13;11.10;;;;;;;;;;5099809;28;20204;-78
2021/01/16 16:17:41;;;;;;;35.93;12.97;;;;;;;;;;5099691;28;20325;-77
2021/01/16 16:20:47;;;;;;;36.13;13.63;;;;;;;;;;5090265;28;20680;-78
2021/01/16 16:23:53;;;;;;;45.13;14.47;;;;;;;;;;5103296;28;20185;-77
2021/01/16 16:27:00;;;;;;;49.63;15.57;;;;;;;;;;5102259;28;20231;-78
2021/01/16 16:30:07;;;;;;;51.90;16.80;;;;;;;;;;5082244;28;20217;-78
2021/01/16 16:33:11;;;;;;;33.87;13.67;;;;;;;;;;5082320;28;20256;-77
2021/01/16 16:36:16;;;;;;;34.63;12.87;;;;;;;;;;5123343;28;20227;-79
2021/01/16 16:39:22;;;;;;;38.83;14.03;;;;;;;;;;5108319;28;20299;-79
2021/01/16 16:42:26;;;;;;;33.67;14.00;;;;;;;;;;5083422;28;20233;-76
2021/01/16 16:45:32;;;;;;;39.43;14.37;;;;;;;;;;5096464;28;20223;-78
2021/01/16 16:48:38;;;;;;;35.57;12.83;;;;;;;;;;5119970;28;20200;-78
2021/01/16 16:51:42;;;;;;;33.53;13.33;;;;;;;;;;5121063;28;20231;-76
2021/01/16 16:54:48;;;;;;;30.87;11.80;;;;;;;;;;5114843;28;20339;-77
2021/01/16 16:57:55;;;;;;;34.40;12.83;;;;;;;;;;5108398;28;20195;-79
2021/01/16 17:01:08;;;;;;;30.97;10.70;;;;;;;;;;5108746;27;20204;-78
2021/01/16 17:04:19;;;;;;;31.73;12.07;;;;;;;;;;5091023;28;20779;-76
2021/01/16 17:07:30;;;;;;;32.67;12.50;;;;;;;;;;5118776;28;20200;-75
2021/01/16 17:10:40;;;;;;;31.17;11.90;;;;;;;;;;5111700;28;20250;-75
2021/01/16 17:13:44;;;;;;;34.03;11.83;;;;;;;;;;5101863;28;20668;-76
2021/01/16 17:16:49;;;;;;;35.80;12.43;;;;;;;;;;5100925;28;20235;-81
2021/01/16 17:19:57;;;;;;;35.37;12.97;;;;;;;;;;5090835;28;20201;-78
2021/01/16 17:23:04;;;;;;;33.33;12.77;;;;;;;;;;5085203;28;20246;-81
2021/01/16 17:26:10;;;;;;;35.60;13.23;;;;;;;;;;5082950;28;20198;-80
2021/01/16 17:29:15;;;;;;;36.90;13.20;;;;;;;;;;5083883;28;20259;-80
2021/01/16 17:32:20;;;;;;;34.50;13.33;;;;;;;;;;5081325;28;20263;-80
2021/01/16 17:35:25;;;;;;;37.30;13.07;;;;;;;;;;5081443;28;20275;-80
2021/01/16 17:38:30;;;;;;;34.80;13.57;;;;;;;;;;5086484;28;20636;-80
2021/01/16 17:41:37;;;;;;;32.37;12.43;;;;;;;;;;5082010;28;20243;-79
2021/01/16 17:44:42;;;;;;;30.13;12.40;;;;;;;;;;5101674;28;20224;-79
2021/01/16 17:47:47;;;;;;;31.97;12.47;;;;;;;;;;5100691;28;20618;-79
2021/01/16 17:50:52;;;;;;;41.77;14.43;;;;;;;;;;5091205;28;20209;-78
2021/01/16 17:53:56;;;;;;;35.30;12.17;;;;;;;;;;5092719;28;20197;-76
2021/01/16 17:57:02;;;;;;;35.83;13.90;;;;;;;;;;5082277;28;20287;-77
2021/01/16 18:00:08;;;;;;;33.83;12.73;;;;;;;;;;5113604;28;20220;-79
2021/01/16 18:03:12;;;;;;;37.27;13.47;;;;;;;;;;5113156;28;20232;-77
2021/01/16 18:06:21;;;;;;;36.70;13.53;;;;;;;;;;5101903;28;20204;-78
2021/01/16 18:09:26;;;;;;;35.03;14.27;;;;;;;;;;5103665;28;20224;-79
2021/01/16 18:12:34;;;;;;;35.20;13.43;;;;;;;;;;5102832;28;20245;-79
2021/01/16 18:15:39;;;;;;;32.53;12.63;;;;;;;;;;5103232;28;20715;-78